createdAt,value
2022-12-22T00:00:29.113Z,984.65
2022-12-22T00:01:29.193Z,984.68
2022-12-22T00:02:29.281Z,984.66
2022-12-22T00:03:29.130Z,984.65
2022-12-22T00:04:29.093Z,984.64
2022-12-22T00:05:29.066Z,984.65
2022-12-22T00:06:29.060Z,984.66
2022-12-22T00:07:29.080Z,984.61
2022-12-22T00:08:29.050Z,984.58
2022-12-22T00:09:29.061Z,984.57
2022-12-22T00:10:29.036Z,984.60
2022-12-22T00:11:29.040Z,984.58
2022-12-22T00:12:29.061Z,984.62
2022-12-22T00:13:29.009Z,984.60
2022-12-22T00:14:29.010Z,984.61
2022-12-22T00:15:28.984Z,984.63
2022-12-22T00:16:29.022Z,984.58
2022-12-22T00:17:28.976Z,984.57
2022-12-22T00:18:28.996Z,984.53
2022-12-22T00:19:28.960Z,984.46
2022-12-22T00:20:28.949Z,984.41
2022-12-22T00:21:28.937Z,984.43
2022-12-22T00:22:28.933Z,984.45
2022-12-22T00:23:28.944Z,984.38
2022-12-22T00:24:28.927Z,984.41
2022-12-22T00:25:28.909Z,984.37
2022-12-22T00:26:28.900Z,984.31
2022-12-22T00:27:28.891Z,984.32
2022-12-22T00:28:28.908Z,984.32
2022-12-22T00:29:28.874Z,984.31
2022-12-22T00:30:28.938Z,984.28
2022-12-22T00:31:28.907Z,984.27
2022-12-22T00:32:28.849Z,984.27
2022-12-22T00:33:28.866Z,984.20
2022-12-22T00:34:32.458Z,984.20
2022-12-22T00:35:29.826Z,984.22
2022-12-22T00:36:28.837Z,984.22
2022-12-22T00:37:28.810Z,984.18
2022-12-22T00:38:28.822Z,984.14
2022-12-22T00:39:29.802Z,984.21
2022-12-22T00:40:28.785Z,984.17
2022-12-22T00:41:28.780Z,984.15
2022-12-22T00:42:28.772Z,984.14
2022-12-22T00:43:28.789Z,984.06
2022-12-22T00:44:28.765Z,984.09
2022-12-22T00:45:28.769Z,984.13
2022-12-22T00:46:28.798Z,984.06
2022-12-22T00:47:28.737Z,984.10
2022-12-22T00:48:28.756Z,984.09
2022-12-22T00:49:28.727Z,984.04
2022-12-22T00:50:28.711Z,984.03
2022-12-22T00:51:28.710Z,983.99
2022-12-22T00:52:28.699Z,984.01
2022-12-22T00:53:28.726Z,984.02
2022-12-22T00:54:28.681Z,983.99
2022-12-22T00:55:28.672Z,984.01
2022-12-22T00:56:28.664Z,983.90
2022-12-22T00:57:28.650Z,983.86
2022-12-22T00:58:28.675Z,983.86
2022-12-22T00:59:28.647Z,983.78
2022-12-22T01:00:28.630Z,983.82
2022-12-22T01:01:28.669Z,983.79
2022-12-22T01:02:28.822Z,983.78
2022-12-22T01:03:28.672Z,983.81
2022-12-22T01:04:29.602Z,983.78
2022-12-22T01:05:28.592Z,983.84
2022-12-22T01:06:28.584Z,983.79
2022-12-22T01:07:28.573Z,983.79
2022-12-22T01:08:28.596Z,983.68
2022-12-22T01:09:28.561Z,983.79
2022-12-22T01:10:28.554Z,983.80
2022-12-22T01:11:28.543Z,983.79
2022-12-22T01:12:28.535Z,983.76
2022-12-22T01:13:28.528Z,983.81
2022-12-22T01:14:28.544Z,983.79
2022-12-22T01:15:28.512Z,983.75
2022-12-22T01:16:28.527Z,983.80
2022-12-22T01:17:28.509Z,983.82
2022-12-22T01:18:28.487Z,983.81
2022-12-22T01:19:28.495Z,983.76
2022-12-22T01:20:29.473Z,983.77
2022-12-22T01:21:28.468Z,983.78
2022-12-22T01:22:28.460Z,983.78
2022-12-22T01:23:28.445Z,983.76
2022-12-22T01:24:28.471Z,983.73
2022-12-22T01:25:28.427Z,983.67
2022-12-22T01:26:29.449Z,983.73
2022-12-22T01:27:28.437Z,983.69
2022-12-22T01:28:28.432Z,983.69
2022-12-22T01:29:28.428Z,983.73
2022-12-22T01:30:28.434Z,983.62
2022-12-22T01:31:28.446Z,983.66
2022-12-22T01:32:28.382Z,983.63
2022-12-22T01:33:28.373Z,983.62
2022-12-22T01:34:28.390Z,983.60
2022-12-22T01:35:28.358Z,983.64
2022-12-22T01:36:28.355Z,983.56
2022-12-22T01:37:28.346Z,983.40
2022-12-22T01:38:28.335Z,983.49
2022-12-22T01:39:28.359Z,983.57
2022-12-22T01:40:28.318Z,983.48
2022-12-22T01:41:28.311Z,983.37
2022-12-22T01:42:28.303Z,983.41
2022-12-22T01:43:28.299Z,983.39
2022-12-22T01:44:28.313Z,983.36
2022-12-22T01:45:28.288Z,983.37
2022-12-22T01:46:28.320Z,983.31
2022-12-22T01:47:28.259Z,983.32
2022-12-22T01:48:28.256Z,983.25
2022-12-22T01:49:28.294Z,983.25
2022-12-22T01:50:28.237Z,983.30
2022-12-22T01:51:28.232Z,983.22
2022-12-22T01:52:28.234Z,983.18
2022-12-22T01:53:28.233Z,983.25
2022-12-22T01:54:28.232Z,983.17
2022-12-22T01:55:28.202Z,983.18
2022-12-22T01:56:28.193Z,983.17
2022-12-22T01:57:28.198Z,983.20
2022-12-22T01:58:28.175Z,983.18
2022-12-22T01:59:28.258Z,983.14
2022-12-22T02:00:28.161Z,983.17
2022-12-22T02:01:28.246Z,983.11
2022-12-22T02:02:28.222Z,983.13
2022-12-22T02:03:28.170Z,983.09
2022-12-22T02:04:28.129Z,983.05
2022-12-22T02:05:28.145Z,983.07
2022-12-22T02:06:28.109Z,983.05
2022-12-22T02:07:28.104Z,983.09
2022-12-22T02:08:28.101Z,983.07
2022-12-22T02:09:28.089Z,983.03
2022-12-22T02:10:28.106Z,983.05
2022-12-22T02:11:28.080Z,983.03
2022-12-22T02:12:28.052Z,983.00
2022-12-22T02:13:29.055Z,982.98
2022-12-22T02:14:30.386Z,982.92
2022-12-22T02:15:29.067Z,982.94
2022-12-22T02:16:28.079Z,982.92
2022-12-22T02:17:28.018Z,982.92
2022-12-22T02:18:28.011Z,982.88
2022-12-22T02:19:28.003Z,982.90
2022-12-22T02:20:28.026Z,982.91
2022-12-22T02:21:27.992Z,982.97
2022-12-22T02:22:27.988Z,982.83
2022-12-22T02:23:27.974Z,982.83
2022-12-22T02:24:27.974Z,982.89
2022-12-22T02:25:27.983Z,982.82
2022-12-22T02:26:27.950Z,982.76
2022-12-22T02:27:27.944Z,982.85
2022-12-22T02:28:27.930Z,982.81
2022-12-22T02:29:27.933Z,982.81
2022-12-22T02:30:27.944Z,982.86
2022-12-22T02:31:27.935Z,982.79
2022-12-22T02:32:27.913Z,982.78
2022-12-22T02:33:27.902Z,982.72
2022-12-22T02:34:27.887Z,982.72
2022-12-22T02:35:27.902Z,982.74
2022-12-22T02:36:27.868Z,982.78
2022-12-22T02:37:27.865Z,982.72
2022-12-22T02:38:27.857Z,982.68
2022-12-22T02:39:27.855Z,982.65
2022-12-22T02:40:27.862Z,982.67
2022-12-22T02:41:27.832Z,982.65
2022-12-22T02:42:27.821Z,982.67
2022-12-22T02:43:27.813Z,982.67
2022-12-22T02:44:27.805Z,982.65
2022-12-22T02:45:27.835Z,982.57
2022-12-22T02:46:27.860Z,982.56
2022-12-22T02:47:27.784Z,982.61
2022-12-22T02:48:27.774Z,982.59
2022-12-22T02:49:27.768Z,982.57
2022-12-22T02:50:27.793Z,982.48
2022-12-22T02:51:27.754Z,982.52
2022-12-22T02:52:27.744Z,982.46
2022-12-22T02:53:27.734Z,982.47
2022-12-22T02:54:27.743Z,982.45
2022-12-22T02:55:27.727Z,982.46
2022-12-22T02:56:27.738Z,982.43
2022-12-22T02:57:27.711Z,982.42
2022-12-22T02:58:27.697Z,982.43
2022-12-22T02:59:27.690Z,982.34
2022-12-22T03:00:27.687Z,982.43
2022-12-22T03:01:27.762Z,982.44
2022-12-22T03:02:27.896Z,982.36
2022-12-22T03:03:27.858Z,982.39
2022-12-22T03:04:27.653Z,982.35
2022-12-22T03:05:27.637Z,982.34
2022-12-22T03:06:27.658Z,982.27
2022-12-22T03:07:27.627Z,982.33
2022-12-22T03:08:27.618Z,982.20
2022-12-22T03:09:27.617Z,982.22
2022-12-22T03:10:27.600Z,982.18
2022-12-22T03:11:27.620Z,982.16
2022-12-22T03:12:27.630Z,982.13
2022-12-22T03:13:27.582Z,982.15
2022-12-22T03:14:27.572Z,982.10
2022-12-22T03:15:27.564Z,982.10
2022-12-22T03:16:27.637Z,982.09
2022-12-22T03:17:27.549Z,982.02
2022-12-22T03:18:27.539Z,982.08
2022-12-22T03:19:27.541Z,982.06
2022-12-22T03:20:27.524Z,982.01
2022-12-22T03:21:27.541Z,982.03
2022-12-22T03:22:27.506Z,981.99
2022-12-22T03:23:27.503Z,982.01
2022-12-22T03:24:27.492Z,981.98
2022-12-22T03:25:27.483Z,981.99
2022-12-22T03:26:27.503Z,981.97
2022-12-22T03:27:27.476Z,981.97
2022-12-22T03:28:27.479Z,981.97
2022-12-22T03:29:27.452Z,981.99
2022-12-22T03:30:27.447Z,981.91
2022-12-22T03:31:27.490Z,981.94
2022-12-22T03:32:27.438Z,981.92
2022-12-22T03:33:27.423Z,981.89
2022-12-22T03:34:27.418Z,981.84
2022-12-22T03:35:27.406Z,981.85
2022-12-22T03:36:27.424Z,981.81
2022-12-22T03:37:27.412Z,981.87
2022-12-22T03:38:27.392Z,981.81
2022-12-22T03:39:27.383Z,981.84
2022-12-22T03:40:27.368Z,981.80
2022-12-22T03:41:27.384Z,981.83
2022-12-22T03:42:27.350Z,981.83
2022-12-22T03:43:27.343Z,981.76
2022-12-22T03:44:27.334Z,981.76
2022-12-22T03:45:27.328Z,981.77
2022-12-22T03:46:27.363Z,981.73
2022-12-22T03:47:27.311Z,981.71
2022-12-22T03:48:27.307Z,981.77
2022-12-22T03:49:27.300Z,981.74
2022-12-22T03:50:27.296Z,981.72
2022-12-22T03:51:27.303Z,981.66
2022-12-22T03:52:27.275Z,981.71
2022-12-22T03:53:27.280Z,981.62
2022-12-22T03:54:27.259Z,981.61
2022-12-22T03:55:27.247Z,981.62
2022-12-22T03:56:27.284Z,981.58
2022-12-22T03:57:27.244Z,981.67
2022-12-22T03:58:27.230Z,981.58
2022-12-22T03:59:27.220Z,981.55
2022-12-22T04:00:27.211Z,981.57
2022-12-22T04:01:27.428Z,981.55
2022-12-22T04:02:27.320Z,981.55
2022-12-22T04:03:27.330Z,981.51
2022-12-22T04:04:27.183Z,981.55
2022-12-22T04:05:27.178Z,981.52
2022-12-22T04:06:27.163Z,981.58
2022-12-22T04:07:27.179Z,981.58
2022-12-22T04:08:27.158Z,981.50
2022-12-22T04:09:27.186Z,981.51
2022-12-22T04:10:27.134Z,981.44
2022-12-22T04:11:27.127Z,981.54
2022-12-22T04:12:27.142Z,981.46
2022-12-22T04:13:27.105Z,981.50
2022-12-22T04:14:33.470Z,981.48
2022-12-22T04:15:29.097Z,981.48
2022-12-22T04:16:27.139Z,981.52
2022-12-22T04:17:27.101Z,981.47
2022-12-22T04:18:27.072Z,981.49
2022-12-22T04:19:27.061Z,981.45
2022-12-22T04:20:27.054Z,981.47
2022-12-22T04:21:27.044Z,981.46
2022-12-22T04:22:27.064Z,981.40
2022-12-22T04:23:27.034Z,981.35
2022-12-22T04:24:27.028Z,981.37
2022-12-22T04:25:27.060Z,981.41
2022-12-22T04:26:27.004Z,981.39
2022-12-22T04:27:27.034Z,981.40
2022-12-22T04:28:27.001Z,981.38
2022-12-22T04:29:26.991Z,981.37
2022-12-22T04:30:26.973Z,981.32
2022-12-22T04:31:26.980Z,981.32
2022-12-22T04:32:26.989Z,981.33
2022-12-22T04:33:26.950Z,981.27
2022-12-22T04:34:26.942Z,981.25
2022-12-22T04:35:26.938Z,981.20
2022-12-22T04:36:26.933Z,981.15
2022-12-22T04:37:26.932Z,981.14
2022-12-22T04:38:27.909Z,981.08
2022-12-22T04:39:26.903Z,981.09
2022-12-22T04:40:26.900Z,981.03
2022-12-22T04:41:26.888Z,981.13
2022-12-22T04:42:26.903Z,981.03
2022-12-22T04:43:26.873Z,981.10
2022-12-22T04:44:26.879Z,981.08
2022-12-22T04:45:27.001Z,981.05
2022-12-22T04:46:26.949Z,980.98
2022-12-22T04:47:26.864Z,980.95
2022-12-22T04:48:26.833Z,980.93
2022-12-22T04:49:26.835Z,980.92
2022-12-22T04:50:26.819Z,980.96
2022-12-22T04:51:26.807Z,980.91
2022-12-22T04:52:26.828Z,980.93
2022-12-22T04:53:26.797Z,980.92
2022-12-22T04:54:26.782Z,980.88
2022-12-22T04:55:26.776Z,980.92
2022-12-22T04:56:26.772Z,980.93
2022-12-22T04:57:26.785Z,980.89
2022-12-22T04:58:26.751Z,980.91
2022-12-22T04:59:26.750Z,980.84
2022-12-22T05:00:26.736Z,980.84
2022-12-22T05:01:26.857Z,980.79
2022-12-22T05:02:26.805Z,980.82
2022-12-22T05:03:26.762Z,980.74
2022-12-22T05:04:26.710Z,980.70
2022-12-22T05:05:26.703Z,980.66
2022-12-22T05:06:26.697Z,980.76
2022-12-22T05:07:26.711Z,980.77
2022-12-22T05:08:26.675Z,980.69
2022-12-22T05:09:26.663Z,980.77
2022-12-22T05:10:26.657Z,980.68
2022-12-22T05:11:26.651Z,980.69
2022-12-22T05:12:26.666Z,980.69
2022-12-22T05:13:26.650Z,980.68
2022-12-22T05:14:26.633Z,980.60
2022-12-22T05:15:26.626Z,980.61
2022-12-22T05:16:26.642Z,980.62
2022-12-22T05:17:26.624Z,980.59
2022-12-22T05:18:26.595Z,980.53
2022-12-22T05:19:30.673Z,980.53
2022-12-22T05:20:27.666Z,980.53
2022-12-22T05:21:26.574Z,980.52
2022-12-22T05:22:26.591Z,980.55
2022-12-22T05:23:26.559Z,980.50
2022-12-22T05:24:26.549Z,980.45
2022-12-22T05:25:29.885Z,980.45
2022-12-22T05:26:27.539Z,980.41
2022-12-22T05:27:26.560Z,980.43
2022-12-22T05:28:26.517Z,980.40
2022-12-22T05:29:26.513Z,980.51
2022-12-22T05:30:26.596Z,980.38
2022-12-22T05:31:26.604Z,980.43
2022-12-22T05:32:26.514Z,980.43
2022-12-22T05:33:26.479Z,980.37
2022-12-22T05:34:26.469Z,980.36
2022-12-22T05:35:26.463Z,980.40
2022-12-22T05:36:26.460Z,980.35
2022-12-22T05:37:26.446Z,980.34
2022-12-22T05:38:26.461Z,980.31
2022-12-22T05:39:26.429Z,980.32
2022-12-22T05:40:26.418Z,980.27
2022-12-22T05:41:26.423Z,980.31
2022-12-22T05:42:26.404Z,980.28
2022-12-22T05:43:26.423Z,980.25
2022-12-22T05:44:26.387Z,980.30
2022-12-22T05:45:26.398Z,980.24
2022-12-22T05:46:26.417Z,980.27
2022-12-22T05:47:27.365Z,980.21
2022-12-22T05:48:32.172Z,980.32
2022-12-22T05:49:28.355Z,980.22
2022-12-22T05:50:26.341Z,980.22
2022-12-22T05:51:26.332Z,980.21
2022-12-22T05:52:26.328Z,980.16
2022-12-22T05:53:26.354Z,980.20
2022-12-22T05:54:26.316Z,980.24
2022-12-22T05:55:26.308Z,980.22
2022-12-22T05:56:26.295Z,980.18
2022-12-22T05:57:26.284Z,980.14
2022-12-22T05:58:26.309Z,980.16
2022-12-22T05:59:26.285Z,980.19
2022-12-22T06:00:26.266Z,980.10
2022-12-22T06:01:26.305Z,980.08
2022-12-22T06:02:26.389Z,980.06
2022-12-22T06:03:26.405Z,980.08
2022-12-22T06:04:26.331Z,980.02
2022-12-22T06:05:26.218Z,980.06
2022-12-22T06:06:26.230Z,980.02
2022-12-22T06:07:26.210Z,980.04
2022-12-22T06:08:26.222Z,979.99
2022-12-22T06:09:26.187Z,979.98
2022-12-22T06:10:26.181Z,979.97
2022-12-22T06:11:26.173Z,979.97
2022-12-22T06:12:26.167Z,980.00
2022-12-22T06:13:26.187Z,979.97
2022-12-22T06:14:26.144Z,980.00
2022-12-22T06:15:26.146Z,979.93
2022-12-22T06:16:26.235Z,979.98
2022-12-22T06:17:26.125Z,980.00
2022-12-22T06:18:26.149Z,979.93
2022-12-22T06:19:26.107Z,979.96
2022-12-22T06:20:26.101Z,979.82
2022-12-22T06:21:26.091Z,979.89
2022-12-22T06:22:26.092Z,979.90
2022-12-22T06:23:26.107Z,979.84
2022-12-22T06:24:26.070Z,979.84
2022-12-22T06:25:26.062Z,979.83
2022-12-22T06:26:26.049Z,979.84
2022-12-22T06:27:26.045Z,979.83
2022-12-22T06:28:26.073Z,979.82
2022-12-22T06:29:26.033Z,979.84
2022-12-22T06:30:32.953Z,979.83
2022-12-22T06:31:28.039Z,979.84
2022-12-22T06:32:26.021Z,979.81
2022-12-22T06:33:26.023Z,979.79
2022-12-22T06:34:25.993Z,979.74
2022-12-22T06:35:25.988Z,979.72
2022-12-22T06:36:25.982Z,979.78
2022-12-22T06:37:25.984Z,979.77
2022-12-22T06:38:25.986Z,979.85
2022-12-22T06:39:25.978Z,979.77
2022-12-22T06:40:25.957Z,979.69
2022-12-22T06:41:25.938Z,979.73
2022-12-22T06:42:25.939Z,979.77
2022-12-22T06:43:25.993Z,979.85
2022-12-22T06:44:25.913Z,979.76
2022-12-22T06:45:25.911Z,979.75
2022-12-22T06:46:25.950Z,979.78
2022-12-22T06:47:25.889Z,979.74
2022-12-22T06:48:25.910Z,979.76
2022-12-22T06:49:25.884Z,979.77
2022-12-22T06:50:25.872Z,979.73
2022-12-22T06:51:25.865Z,979.69
2022-12-22T06:52:25.845Z,979.77
2022-12-22T06:53:26.877Z,979.66
2022-12-22T06:54:26.455Z,979.68
2022-12-22T06:55:26.846Z,979.66
2022-12-22T06:56:25.822Z,979.75
2022-12-22T06:57:25.812Z,979.64
2022-12-22T06:58:25.836Z,979.63
2022-12-22T06:59:25.802Z,979.66
2022-12-22T07:00:25.815Z,979.63
2022-12-22T07:01:25.848Z,979.62
2022-12-22T07:02:26.052Z,979.64
2022-12-22T07:03:25.923Z,979.67
2022-12-22T07:04:25.785Z,979.68
2022-12-22T07:05:25.796Z,979.66
2022-12-22T07:06:25.746Z,979.72
2022-12-22T07:07:25.735Z,979.65
2022-12-22T07:08:25.725Z,979.67
2022-12-22T07:09:25.741Z,979.68
2022-12-22T07:10:25.747Z,979.69
2022-12-22T07:11:25.701Z,979.69
2022-12-22T07:12:25.696Z,979.65
2022-12-22T07:13:25.686Z,979.63
2022-12-22T07:14:26.703Z,979.56
2022-12-22T07:15:25.668Z,979.64
2022-12-22T07:16:25.724Z,979.65
2022-12-22T07:17:25.659Z,979.62
2022-12-22T07:18:25.656Z,979.61
2022-12-22T07:19:25.662Z,979.66
2022-12-22T07:20:25.632Z,979.63
2022-12-22T07:21:25.621Z,979.70
2022-12-22T07:22:29.796Z,979.66
2022-12-22T07:23:26.633Z,979.71
2022-12-22T07:24:25.627Z,979.66
2022-12-22T07:25:25.598Z,979.60
2022-12-22T07:26:25.614Z,979.66
2022-12-22T07:27:25.588Z,979.71
2022-12-22T07:28:25.593Z,979.68
2022-12-22T07:29:25.605Z,979.63
2022-12-22T07:30:25.560Z,979.74
2022-12-22T07:31:25.588Z,979.66
2022-12-22T07:32:25.542Z,979.69
2022-12-22T07:33:25.536Z,979.68
2022-12-22T07:34:25.544Z,979.68
2022-12-22T07:35:25.517Z,979.69
2022-12-22T07:36:25.511Z,979.65
2022-12-22T07:37:25.504Z,979.70
2022-12-22T07:38:25.493Z,979.59
2022-12-22T07:39:25.505Z,979.60
2022-12-22T07:40:25.475Z,979.64
2022-12-22T07:41:25.470Z,979.66
2022-12-22T07:42:25.465Z,979.60
2022-12-22T07:43:25.451Z,979.66
2022-12-22T07:44:25.477Z,979.61
2022-12-22T07:45:25.433Z,979.50
2022-12-22T07:46:25.469Z,979.52
2022-12-22T07:47:28.595Z,979.62
2022-12-22T07:48:27.425Z,979.60
2022-12-22T07:49:25.727Z,979.66
2022-12-22T07:50:25.391Z,979.58
2022-12-22T07:51:25.391Z,979.57
2022-12-22T07:52:25.381Z,979.55
2022-12-22T07:53:25.371Z,979.48
2022-12-22T07:54:25.394Z,979.53
2022-12-22T07:55:25.361Z,979.52
2022-12-22T07:56:25.352Z,979.55
2022-12-22T07:57:25.347Z,979.53
2022-12-22T07:58:25.349Z,979.53
2022-12-22T07:59:25.347Z,979.53
2022-12-22T08:00:25.402Z,979.49
2022-12-22T08:01:25.415Z,979.54
2022-12-22T08:02:25.400Z,979.45
2022-12-22T08:03:25.363Z,979.48
2022-12-22T08:04:25.397Z,979.46
2022-12-22T08:05:25.306Z,979.47
2022-12-22T08:06:25.270Z,979.44
2022-12-22T08:07:25.306Z,979.39
2022-12-22T08:08:25.267Z,979.41
2022-12-22T08:09:25.274Z,979.41
2022-12-22T08:10:25.278Z,979.45
2022-12-22T08:11:25.236Z,979.40
2022-12-22T08:12:25.228Z,979.43
2022-12-22T08:13:25.315Z,979.39
2022-12-22T08:14:25.218Z,979.44
2022-12-22T08:15:25.236Z,979.41
2022-12-22T08:16:25.238Z,979.42
2022-12-22T08:17:25.199Z,979.43
2022-12-22T08:18:25.176Z,979.44
2022-12-22T08:19:25.168Z,979.46
2022-12-22T08:20:25.215Z,979.39
2022-12-22T08:21:25.161Z,979.39
2022-12-22T08:22:25.153Z,979.40
2022-12-22T08:23:25.156Z,979.38
2022-12-22T08:24:25.131Z,979.35
2022-12-22T08:25:25.146Z,979.37
2022-12-22T08:26:25.124Z,979.40
2022-12-22T08:27:26.382Z,979.37
2022-12-22T08:28:26.101Z,979.37
2022-12-22T08:29:25.094Z,979.36
2022-12-22T08:30:25.170Z,979.30
2022-12-22T08:31:25.130Z,979.37
2022-12-22T08:32:25.078Z,979.32
2022-12-22T08:33:25.064Z,979.32
2022-12-22T08:34:25.060Z,979.28
2022-12-22T08:35:25.071Z,979.29
2022-12-22T08:36:25.040Z,979.31
2022-12-22T08:37:25.039Z,979.27
2022-12-22T08:38:25.026Z,979.22
2022-12-22T08:39:25.042Z,979.24
2022-12-22T08:40:25.102Z,979.18
2022-12-22T08:41:25.001Z,979.25
2022-12-22T08:42:25.010Z,979.27
2022-12-22T08:43:24.982Z,979.15
2022-12-22T08:44:25.004Z,979.29
2022-12-22T08:45:24.993Z,979.20
2022-12-22T08:46:25.004Z,979.25
2022-12-22T08:47:25.002Z,979.18
2022-12-22T08:48:24.942Z,979.24
2022-12-22T08:49:24.929Z,979.15
2022-12-22T08:50:24.963Z,979.20
2022-12-22T08:51:24.920Z,979.26
2022-12-22T08:52:24.912Z,979.17
2022-12-22T08:54:03.410Z,979.19
2022-12-22T08:54:26.901Z,979.18
2022-12-22T08:55:24.925Z,979.24
2022-12-22T08:56:24.885Z,979.21
2022-12-22T08:57:24.873Z,979.13
2022-12-22T08:58:24.874Z,979.20
2022-12-22T08:59:24.856Z,979.20
2022-12-22T09:00:24.879Z,979.19
2022-12-22T09:01:24.895Z,979.18
2022-12-22T09:02:24.964Z,979.24
2022-12-22T09:03:24.905Z,979.20
2022-12-22T09:04:24.821Z,979.22
2022-12-22T09:05:24.820Z,979.22
2022-12-22T09:06:27.572Z,979.22
2022-12-22T09:07:25.798Z,979.25
2022-12-22T09:08:24.790Z,979.25
2022-12-22T09:09:24.769Z,979.31
2022-12-22T09:10:25.819Z,979.21
2022-12-22T09:11:24.780Z,979.25
2022-12-22T09:12:24.762Z,979.20
2022-12-22T09:13:24.761Z,979.27
2022-12-22T09:14:24.743Z,979.27
2022-12-22T09:15:24.738Z,979.27
2022-12-22T09:16:24.822Z,979.32
2022-12-22T09:17:24.720Z,979.30
2022-12-22T09:18:24.712Z,979.34
2022-12-22T09:19:24.710Z,979.31
2022-12-22T09:20:24.694Z,979.26
2022-12-22T09:21:24.718Z,979.27
2022-12-22T09:22:28.419Z,979.26
2022-12-22T09:23:25.690Z,979.31
2022-12-22T09:24:24.682Z,979.26
2022-12-22T09:25:24.659Z,979.32
2022-12-22T09:26:24.678Z,979.34
2022-12-22T09:27:24.644Z,979.32
2022-12-22T09:28:24.645Z,979.38
2022-12-22T09:29:24.638Z,979.39
2022-12-22T09:30:24.628Z,979.45
2022-12-22T09:31:24.691Z,979.42
2022-12-22T09:32:24.605Z,979.45
2022-12-22T09:33:24.603Z,979.46
2022-12-22T09:34:24.596Z,979.47
2022-12-22T09:35:24.584Z,979.35
2022-12-22T09:36:24.604Z,979.40
2022-12-22T09:37:24.570Z,979.33
2022-12-22T09:38:24.558Z,979.40
2022-12-22T09:39:28.797Z,979.44
2022-12-22T09:40:26.539Z,979.41
2022-12-22T09:41:24.559Z,979.38
2022-12-22T09:42:24.523Z,979.46
2022-12-22T09:43:24.521Z,979.42
2022-12-22T09:44:24.526Z,979.45
2022-12-22T09:45:24.502Z,979.45
2022-12-22T09:46:24.599Z,979.44
2022-12-22T09:47:24.536Z,979.43
2022-12-22T09:48:24.481Z,979.44
2022-12-22T09:49:24.474Z,979.41
2022-12-22T09:50:24.494Z,979.46
2022-12-22T09:51:27.218Z,979.41
2022-12-22T09:52:25.447Z,979.42
2022-12-22T09:53:24.444Z,979.37
2022-12-22T09:54:24.439Z,979.44
2022-12-22T09:55:24.425Z,979.42
2022-12-22T09:56:24.446Z,979.45
2022-12-22T09:57:24.503Z,979.47
2022-12-22T09:58:26.687Z,979.42
2022-12-22T09:59:25.389Z,979.49
2022-12-22T10:00:24.394Z,979.46
2022-12-22T10:01:24.540Z,979.46
2022-12-22T10:02:24.441Z,979.48
2022-12-22T10:03:24.452Z,979.50
2022-12-22T10:04:24.362Z,979.46
2022-12-22T10:05:24.360Z,979.41
2022-12-22T10:06:24.380Z,979.44
2022-12-22T10:07:24.353Z,979.52
2022-12-22T10:08:24.331Z,979.49
2022-12-22T10:09:51.995Z,979.51
2022-12-22T10:10:26.301Z,979.52
2022-12-22T10:11:24.333Z,979.55
2022-12-22T10:12:24.301Z,979.56
2022-12-22T10:13:24.293Z,979.56
2022-12-22T10:14:24.277Z,979.61
2022-12-22T10:15:24.274Z,979.62
2022-12-22T10:16:24.341Z,979.70
2022-12-22T10:17:24.421Z,979.71
2022-12-22T10:18:24.245Z,979.78
2022-12-22T10:19:24.233Z,979.76
2022-12-22T10:20:24.230Z,979.73
2022-12-22T10:21:24.253Z,979.80
2022-12-22T10:22:24.214Z,979.79
2022-12-22T10:23:24.202Z,979.78
2022-12-22T10:24:24.193Z,979.73
2022-12-22T10:25:24.191Z,979.71
2022-12-22T10:26:29.205Z,979.74
2022-12-22T10:27:29.248Z,979.74
2022-12-22T10:28:25.159Z,979.77
2022-12-22T10:29:24.152Z,979.78
2022-12-22T10:30:24.155Z,979.80
2022-12-22T10:31:24.183Z,979.78
2022-12-22T10:32:24.212Z,979.75
2022-12-22T10:33:24.120Z,979.85
2022-12-22T10:34:24.117Z,979.86
2022-12-22T10:35:24.101Z,979.85
2022-12-22T10:36:24.113Z,979.91
2022-12-22T10:37:24.115Z,979.87
2022-12-22T10:38:24.076Z,979.91
2022-12-22T10:39:24.082Z,980.00
2022-12-22T10:40:24.062Z,980.01
2022-12-22T10:41:24.068Z,979.97
2022-12-22T10:42:24.080Z,979.99
2022-12-22T10:43:24.036Z,979.97
2022-12-22T10:44:24.037Z,980.00
2022-12-22T10:45:24.029Z,979.99
2022-12-22T10:46:24.063Z,980.02
2022-12-22T10:47:24.486Z,980.10
2022-12-22T10:48:23.996Z,980.10
2022-12-22T10:49:23.999Z,980.13
2022-12-22T10:50:23.985Z,980.29
2022-12-22T10:51:23.987Z,980.29
2022-12-22T10:52:29.597Z,980.35
2022-12-22T10:53:25.955Z,980.37
2022-12-22T10:54:23.956Z,980.36
2022-12-22T10:55:23.949Z,980.41
2022-12-22T10:56:24.007Z,980.36
2022-12-22T10:57:23.951Z,980.40
2022-12-22T10:58:23.923Z,980.46
2022-12-22T10:59:23.912Z,980.47
2022-12-22T11:00:23.920Z,980.45
2022-12-22T11:01:23.989Z,980.49
2022-12-22T11:02:24.130Z,980.44
2022-12-22T11:03:24.755Z,980.44
2022-12-22T11:04:24.894Z,980.43
2022-12-22T11:05:23.861Z,980.48
2022-12-22T11:06:23.849Z,980.47
2022-12-22T11:07:23.869Z,980.49
2022-12-22T11:08:23.837Z,980.48
2022-12-22T11:09:33.891Z,980.50
2022-12-22T11:10:25.843Z,980.51
2022-12-22T11:11:23.810Z,980.50
2022-12-22T11:12:23.833Z,980.49
2022-12-22T11:13:23.792Z,980.52
2022-12-22T11:14:23.781Z,980.57
2022-12-22T11:15:25.152Z,980.47
2022-12-22T11:16:23.829Z,980.51
2022-12-22T11:17:23.807Z,980.63
2022-12-22T11:18:23.752Z,980.60
2022-12-22T11:19:23.747Z,980.65
2022-12-22T11:20:23.739Z,980.66
2022-12-22T11:21:24.477Z,980.62
2022-12-22T11:22:24.748Z,980.67
2022-12-22T11:23:23.706Z,980.72
2022-12-22T11:24:23.701Z,980.75
2022-12-22T11:25:23.698Z,980.74
2022-12-22T11:26:23.682Z,980.73
2022-12-22T11:27:23.703Z,980.71
2022-12-22T11:28:23.669Z,980.75
2022-12-22T11:29:23.686Z,980.69
2022-12-22T11:30:23.656Z,980.76
2022-12-22T11:31:23.714Z,980.72
2022-12-22T11:32:23.661Z,980.82
2022-12-22T11:33:23.628Z,980.81
2022-12-22T11:34:23.617Z,980.85
2022-12-22T11:35:23.613Z,980.78
2022-12-22T11:36:23.599Z,980.79
2022-12-22T11:37:23.644Z,980.79
2022-12-22T11:38:23.603Z,980.77
2022-12-22T11:39:23.576Z,980.78
2022-12-22T11:40:23.569Z,980.82
2022-12-22T11:41:23.562Z,980.85
2022-12-22T11:42:23.557Z,980.87
2022-12-22T11:43:23.578Z,980.93
2022-12-22T11:44:23.543Z,980.90
2022-12-22T11:45:23.545Z,980.99
2022-12-22T11:46:23.590Z,980.96
2022-12-22T11:47:23.517Z,980.89
2022-12-22T11:48:23.548Z,980.93
2022-12-22T11:49:23.504Z,980.95
2022-12-22T11:51:00.383Z,980.95
2022-12-22T11:51:27.588Z,980.96
2022-12-22T11:52:24.479Z,980.98
2022-12-22T11:53:23.500Z,981.00
2022-12-22T11:54:23.475Z,981.00
2022-12-22T11:55:23.457Z,981.02
2022-12-22T11:56:23.457Z,981.04
2022-12-22T11:57:23.437Z,981.08
2022-12-22T11:58:23.456Z,981.08
2022-12-22T11:59:23.422Z,981.06
2022-12-22T12:00:32.721Z,981.04
2022-12-22T12:01:26.387Z,981.12
2022-12-22T12:02:24.632Z,981.12
2022-12-22T12:03:23.539Z,981.14
2022-12-22T12:04:23.433Z,981.15
2022-12-22T12:05:23.371Z,981.28
2022-12-22T12:06:23.372Z,981.23
2022-12-22T12:07:25.888Z,981.24
2022-12-22T12:08:24.379Z,981.25
2022-12-22T12:09:23.346Z,981.28
2022-12-22T12:10:23.353Z,981.28
2022-12-22T12:11:23.333Z,981.32
2022-12-22T12:12:23.318Z,981.38
2022-12-22T12:13:28.580Z,981.38
2022-12-22T12:14:25.315Z,981.47
2022-12-22T12:15:23.307Z,981.42
2022-12-22T12:16:23.341Z,981.43
2022-12-22T12:17:23.334Z,981.49
2022-12-22T12:18:23.289Z,981.41
2022-12-22T12:19:26.871Z,981.51
2022-12-22T12:20:25.249Z,981.54
2022-12-22T12:21:23.266Z,981.56
2022-12-22T12:22:23.238Z,981.57
2022-12-22T12:23:23.265Z,981.53
2022-12-22T12:24:23.228Z,981.55
2022-12-22T12:25:25.981Z,981.67
2022-12-22T12:26:24.212Z,981.71
2022-12-22T12:27:23.197Z,981.72
2022-12-22T12:28:23.214Z,981.68